Marine Surveyor — WHD9238 — position and weather

sailwx.info

Track history (hours):
 
Tides and Currents Weather Stations Pressure Air Temp Water Temp Dewpoint Dewpoint Depression Visibility Wind Speed Wind Dir Waves Ship Positions

Marine Surveyor

Last reported at 2018-Jul-17 19:00 UTC. Time now 2018-Jul-17 19:05 UTC.
Position N 33°43' W 118°14'.

Type: Neutral ship in war zone. MMSI: 367666030.

Date/timePositionNaut miles runAvg speedWind from/ knotsBaromVisibWave heightAir tempDewpointWater temp
2018-Jul-17 19:00N 33°43' W 118°14'1 1.2
2018-Jul-17 18:29N 33°42' W 118°14'1 1.8
2018-Jul-17 18:00N 33°43' W 118°14'1 2.7
2018-Jul-17 17:31N 33°44' W 118°13'0 0.5
2018-Jul-17 17:01N 33°44' W 118°12'2 3.2
2018-Jul-17 16:30N 33°44' W 118°10'1 1.6
2018-Jul-17 15:59N 33°44' W 118°11'1 1.9
2018-Jul-17 15:31N 33°44' W 118°10'2 3.8
2018-Jul-17 15:00N 33°43' W 118°12'4 0.2
2018-Jul-16 17:21N 33°43' W 118°17'2 4.4
2018-Jul-16 17:00N 33°45' W 118°17'2 3.7
2018-Jul-16 16:30N 33°43' W 118°15'1 1.6
2018-Jul-16 16:00N 33°43' W 118°15'2 3.1
2018-Jul-16 15:30N 33°42' W 118°15'  
2018-Jul-11 18:13N 33°43' W 118°17'0 2.2
2018-Jul-11 18:00N 33°43' W 118°16'0 0.8
2018-Jul-11 17:30N 33°44' W 118°16'2 3.5
2018-Jul-11 17:00N 33°43' W 118°15'  
Track history (hours):
 
Tides and Currents Weather Stations Pressure Air Temp Water Temp Dewpoint Dewpoint Depression Visibility Wind Speed Wind Dir Waves Ship Positions

Marine Surveyor

Last reported at 2018-Jul-17 19:00 UTC. Time now 2018-Jul-17 19:05 UTC.
Position N 33°43' W 118°14'.

Type: Neutral ship in war zone. MMSI: 367666030.

Date/timePositionNaut miles runAvg speedWind from/ knotsBaromVisibWave heightAir tempDewpointWater temp
2018-Jul-17 19:00N 33°43' W 118°14'1 1.2
2018-Jul-17 18:29N 33°42' W 118°14'1 1.8
2018-Jul-17 18:00N 33°43' W 118°14'1 2.7
2018-Jul-17 17:31N 33°44' W 118°13'0 0.5
2018-Jul-17 17:01N 33°44' W 118°12'2 3.2
2018-Jul-17 16:30N 33°44' W 118°10'1 1.6
2018-Jul-17 15:59N 33°44' W 118°11'1 1.9
2018-Jul-17 15:31N 33°44' W 118°10'2 3.8
2018-Jul-17 15:00N 33°43' W 118°12'4 0.2
2018-Jul-16 17:21N 33°43' W 118°17'2 4.4
2018-Jul-16 17:00N 33°45' W 118°17'2 3.7
2018-Jul-16 16:30N 33°43' W 118°15'1 1.6
2018-Jul-16 16:00N 33°43' W 118°15'2 3.1
2018-Jul-16 15:30N 33°42' W 118°15'  
2018-Jul-11 18:13N 33°43' W 118°17'0 2.2
2018-Jul-11 18:00N 33°43' W 118°16'0 0.8
2018-Jul-11 17:30N 33°44' W 118°16'2 3.5
2018-Jul-11 17:00N 33°43' W 118°15'  

Dump ship's entire track history